createdAt,value
2022-11-03T00:02:04.022Z,99.90
2022-11-03T00:04:32.151Z,99.90
2022-11-03T00:07:00.234Z,99.90
2022-11-03T00:09:28.396Z,99.90
2022-11-03T00:11:56.459Z,99.90
2022-11-03T00:14:25.926Z,99.90
2022-11-03T00:16:54.265Z,99.90
2022-11-03T00:19:22.468Z,99.90
2022-11-03T00:21:50.829Z,99.90
2022-11-03T00:24:18.920Z,99.90
2022-11-03T00:26:47.064Z,99.90
2022-11-03T00:29:16.163Z,99.90
2022-11-03T00:31:46.405Z,99.90
2022-11-03T00:34:14.745Z,99.90
2022-11-03T00:36:44.140Z,99.90
2022-11-03T00:39:13.315Z,99.90
2022-11-03T00:41:41.932Z,99.90
2022-11-03T00:44:13.459Z,99.90
2022-11-03T00:46:41.944Z,99.90
2022-11-03T00:49:11.331Z,99.90
2022-11-03T00:51:39.446Z,99.90
2022-11-03T00:54:08.512Z,99.90
2022-11-03T00:56:38.586Z,99.90
2022-11-03T00:59:08.238Z,99.90
2022-11-03T01:01:45.241Z,99.90
2022-11-03T01:04:35.085Z,99.90
2022-11-03T01:07:04.660Z,99.90
2022-11-03T01:09:36.578Z,99.90
2022-11-03T01:12:06.804Z,99.90
2022-11-03T01:14:37.660Z,99.90
2022-11-03T01:17:07.149Z,99.90
2022-11-03T01:19:36.925Z,99.90
2022-11-03T01:22:09.492Z,99.90
2022-11-03T01:24:40.088Z,99.90
2022-11-03T01:27:08.276Z,99.90
2022-11-03T01:29:36.388Z,99.90
2022-11-03T01:32:04.455Z,99.90
2022-11-03T01:34:32.525Z,99.90
2022-11-03T01:37:02.116Z,99.90
2022-11-03T01:39:30.148Z,99.90
2022-11-03T01:41:58.210Z,99.90
2022-11-03T01:44:29.804Z,99.90
2022-11-03T01:47:03.716Z,99.90
2022-11-03T01:49:37.971Z,99.90
2022-11-03T01:52:12.548Z,99.90
2022-11-03T01:54:42.261Z,99.90
2022-11-03T01:57:14.895Z,99.90
2022-11-03T01:59:44.076Z,99.90
2022-11-03T02:02:12.819Z,99.90
2022-11-03T02:04:41.808Z,99.90
2022-11-03T02:07:18.289Z,99.90
2022-11-03T02:09:46.525Z,99.90
2022-11-03T02:12:16.406Z,99.90
2022-11-03T02:14:51.048Z,99.90
2022-11-03T02:17:21.143Z,99.90
2022-11-03T02:19:53.246Z,99.90
2022-11-03T02:22:53.999Z,99.90
2022-11-03T02:25:41.436Z,99.90
2022-11-03T02:28:10.305Z,99.90
2022-11-03T02:30:44.064Z,99.90
2022-11-03T02:33:21.772Z,99.90
2022-11-03T02:35:56.087Z,99.90
2022-11-03T02:38:28.598Z,99.90
2022-11-03T02:41:02.313Z,99.90
2022-11-03T02:43:31.330Z,99.90
2022-11-03T02:45:59.571Z,99.90
2022-11-03T02:48:27.921Z,99.90
2022-11-03T02:50:56.216Z,99.90
2022-11-03T02:53:24.529Z,99.90
2022-11-03T02:55:59.491Z,99.90
2022-11-03T02:58:35.374Z,99.90
2022-11-03T03:01:14.903Z,99.90
2022-11-03T03:03:48.232Z,99.90
2022-11-03T03:06:20.342Z,99.90
2022-11-03T03:08:52.334Z,99.90
2022-11-03T03:11:37.612Z,99.90
2022-11-03T03:14:25.180Z,99.90
2022-11-03T03:17:00.550Z,99.90
2022-11-03T03:19:32.070Z,99.90
2022-11-03T03:22:11.801Z,99.90
2022-11-03T03:24:46.673Z,99.90
2022-11-03T03:27:17.721Z,99.90
2022-11-03T03:29:51.447Z,99.90
2022-11-03T03:32:24.224Z,99.90
2022-11-03T03:34:54.507Z,99.90
2022-11-03T03:37:26.304Z,99.90
2022-11-03T03:39:59.471Z,99.90
2022-11-03T03:42:30.829Z,99.90
2022-11-03T03:45:01.381Z,99.90
2022-11-03T03:47:31.672Z,99.90
2022-11-03T03:50:00.429Z,99.90
2022-11-03T03:52:30.168Z,99.90
2022-11-03T03:54:58.269Z,99.90
2022-11-03T03:57:28.863Z,99.90
2022-11-03T03:59:56.969Z,99.90
2022-11-03T04:02:26.669Z,99.90
2022-11-03T04:04:54.874Z,99.90
2022-11-03T04:07:43.513Z,99.90
2022-11-03T04:10:12.178Z,99.90
2022-11-03T04:12:59.538Z,99.90
2022-11-03T04:15:45.048Z,99.90
2022-11-03T04:18:32.055Z,99.90
2022-11-03T04:21:17.411Z,99.90
2022-11-03T04:23:45.758Z,99.90
2022-11-03T04:26:16.218Z,99.90
2022-11-03T04:28:44.580Z,99.90
2022-11-03T04:31:14.121Z,99.90
2022-11-03T04:33:44.110Z,99.90
2022-11-03T04:36:16.533Z,99.90
2022-11-03T04:38:45.517Z,99.90
2022-11-03T04:41:17.081Z,99.90
2022-11-03T04:43:46.410Z,99.90
2022-11-03T04:46:17.206Z,99.90
2022-11-03T04:48:47.636Z,99.90
2022-11-03T04:51:18.202Z,99.90
2022-11-03T04:53:52.321Z,99.90
2022-11-03T04:56:23.604Z,99.90
2022-11-03T04:58:51.959Z,99.90
2022-11-03T05:01:24.228Z,99.90
2022-11-03T05:03:55.629Z,99.90
2022-11-03T05:06:27.274Z,99.90
2022-11-03T05:08:58.979Z,99.90
2022-11-03T05:11:32.233Z,99.90
2022-11-03T05:14:02.591Z,99.90
2022-11-03T05:16:32.509Z,99.90
2022-11-03T05:19:02.277Z,99.90
2022-11-03T05:21:30.516Z,99.90
2022-11-03T05:24:03.400Z,99.90
2022-11-03T05:26:35.209Z,99.90
2022-11-03T05:29:05.499Z,99.90
2022-11-03T05:31:36.547Z,99.90
2022-11-03T05:34:27.599Z,99.90
2022-11-03T05:36:55.797Z,99.90
2022-11-03T05:39:30.753Z,99.90
2022-11-03T05:42:00.401Z,99.90
2022-11-03T05:44:36.822Z,99.90
2022-11-03T05:47:10.469Z,99.90
2022-11-03T05:49:41.249Z,99.90
2022-11-03T05:52:16.614Z,99.90
2022-11-03T05:54:44.801Z,99.90
2022-11-03T05:57:15.249Z,99.90
2022-11-03T05:59:46.778Z,99.90
2022-11-03T06:02:30.567Z,99.90
2022-11-03T06:05:00.381Z,99.90
2022-11-03T06:07:31.844Z,99.90
2022-11-03T06:10:00.400Z,99.90
2022-11-03T06:12:31.597Z,99.90
2022-11-03T06:14:59.799Z,99.90
2022-11-03T06:17:29.887Z,99.90
2022-11-03T06:20:01.204Z,99.90
2022-11-03T06:22:32.166Z,99.90
2022-11-03T06:25:02.456Z,99.90
2022-11-03T06:27:33.195Z,99.90
2022-11-03T06:30:04.474Z,99.90
2022-11-03T06:32:34.949Z,99.90
2022-11-03T06:35:05.356Z,99.90
2022-11-03T06:37:35.338Z,99.90
2022-11-03T06:40:24.910Z,99.90
2022-11-03T06:42:54.069Z,99.90
2022-11-03T06:45:24.057Z,99.90
2022-11-03T06:47:54.268Z,99.90
2022-11-03T06:50:28.872Z,99.90
2022-11-03T06:52:58.228Z,99.90
2022-11-03T06:55:27.817Z,99.90
2022-11-03T06:58:00.343Z,99.90
2022-11-03T07:00:35.439Z,99.90
2022-11-03T07:03:10.384Z,99.90
2022-11-03T07:05:40.941Z,99.90
2022-11-03T07:08:20.253Z,99.90
2022-11-03T07:10:49.007Z,99.90
2022-11-03T07:13:23.433Z,99.90
2022-11-03T07:15:52.113Z,99.90
2022-11-03T07:18:24.176Z,99.90
2022-11-03T07:20:55.172Z,99.90
2022-11-03T07:23:26.302Z,99.90
2022-11-03T07:25:55.724Z,99.90
2022-11-03T07:28:28.155Z,99.90
2022-11-03T07:30:56.448Z,98.20
2022-11-03T07:33:27.625Z,95.80
2022-11-03T07:36:16.874Z,94.40
2022-11-03T07:38:47.409Z,94.20
2022-11-03T07:41:20.672Z,92.70
2022-11-03T07:43:57.776Z,92.20
2022-11-03T07:46:26.898Z,93.40
2022-11-03T07:48:57.533Z,92.10
2022-11-03T07:51:30.004Z,91.90
2022-11-03T07:54:03.819Z,92.10
2022-11-03T07:56:36.999Z,92.00
2022-11-03T07:59:12.815Z,92.20
2022-11-03T08:01:42.896Z,92.80
2022-11-03T08:04:14.113Z,92.00
2022-11-03T08:06:44.194Z,91.50
2022-11-03T08:09:12.683Z,89.40
2022-11-03T08:11:41.043Z,82.60
2022-11-03T08:14:09.385Z,83.00
2022-11-03T08:16:37.553Z,80.30
2022-11-03T08:19:05.754Z,76.50
2022-11-03T08:21:33.937Z,75.90
2022-11-03T08:24:03.527Z,74.90
2022-11-03T08:26:31.734Z,74.80
2022-11-03T08:28:59.901Z,71.80
2022-11-03T08:31:28.264Z,71.70
2022-11-03T08:33:56.422Z,72.50
2022-11-03T08:36:24.519Z,75.70
2022-11-03T08:38:52.604Z,75.60
2022-11-03T08:41:22.069Z,76.10
2022-11-03T08:43:50.159Z,77.50
2022-11-03T08:46:18.613Z,79.40
2022-11-03T08:48:47.193Z,80.90
2022-11-03T08:51:16.565Z,82.60
2022-11-03T08:53:45.274Z,84.70
2022-11-03T08:56:16.185Z,83.20
2022-11-03T08:58:48.818Z,81.90
2022-11-03T09:01:17.957Z,81.60
2022-11-03T09:03:46.254Z,79.70
2022-11-03T09:06:14.764Z,80.00
2022-11-03T09:11:31.090Z,74.10
2022-11-03T09:14:00.732Z,72.00
2022-11-03T09:16:28.998Z,69.40
2022-11-03T09:18:57.099Z,68.60
2022-11-03T09:21:25.201Z,67.20
2022-11-03T09:23:53.260Z,65.70
2022-11-03T09:26:21.807Z,65.40
2022-11-03T09:28:50.476Z,67.00
2022-11-03T09:31:20.482Z,66.50
2022-11-03T09:33:48.617Z,66.10
2022-11-03T09:36:17.091Z,64.70
2022-11-03T09:38:45.172Z,67.50
2022-11-03T09:41:26.429Z,69.90
2022-11-03T09:44:03.427Z,70.70
2022-11-03T09:46:33.325Z,69.80
2022-11-03T09:49:01.426Z,69.00
2022-11-03T09:51:29.916Z,70.80
2022-11-03T09:54:00.147Z,71.60
2022-11-03T09:56:28.303Z,70.40
2022-11-03T09:58:56.706Z,71.20
2022-11-03T10:01:25.171Z,71.20
2022-11-03T10:04:02.078Z,73.50
2022-11-03T10:06:30.898Z,74.30
2022-11-03T10:08:59.057Z,77.40
2022-11-03T10:11:27.177Z,79.90
2022-11-03T10:13:57.628Z,81.00
2022-11-03T10:16:27.483Z,83.20
2022-11-03T10:18:57.050Z,82.00
2022-11-03T10:21:28.760Z,84.30
2022-11-03T10:23:56.952Z,84.80
2022-11-03T10:26:25.158Z,84.20
2022-11-03T10:29:02.235Z,86.00
2022-11-03T10:31:35.475Z,85.20
2022-11-03T10:34:05.815Z,85.30
2022-11-03T10:36:35.328Z,84.70
2022-11-03T10:39:25.116Z,85.10
2022-11-03T10:41:58.896Z,86.00
2022-11-03T10:44:29.274Z,84.50
2022-11-03T10:46:59.156Z,83.80
2022-11-03T10:49:29.426Z,84.80
2022-11-03T10:52:07.906Z,84.00
2022-11-03T10:54:38.042Z,82.70
2022-11-03T10:57:06.582Z,81.50
2022-11-03T10:59:38.133Z,81.60
2022-11-03T11:02:16.987Z,82.30
2022-11-03T11:04:48.093Z,83.50
2022-11-03T11:07:26.423Z,82.20
2022-11-03T11:09:55.746Z,82.40
2022-11-03T11:12:25.708Z,84.50
2022-11-03T11:14:58.618Z,84.80
2022-11-03T11:17:47.857Z,84.60
2022-11-03T11:20:36.456Z,81.90
2022-11-03T11:23:52.447Z,84.30
2022-11-03T11:26:41.602Z,85.00
2022-11-03T11:29:43.636Z,83.90
2022-11-03T11:32:44.335Z,84.40
2022-11-03T11:35:17.231Z,85.40
2022-11-03T11:37:46.959Z,85.80
2022-11-03T11:40:35.888Z,84.60
2022-11-03T11:43:27.079Z,86.00
2022-11-03T11:46:36.398Z,82.90
2022-11-03T11:49:18.320Z,84.00
2022-11-03T11:51:46.850Z,82.40
2022-11-03T11:54:21.026Z,83.50
2022-11-03T11:56:50.813Z,81.90
2022-11-03T11:59:25.222Z,82.80
2022-11-03T12:01:57.288Z,84.60
2022-11-03T12:04:29.112Z,85.00
2022-11-03T12:06:57.800Z,84.20
2022-11-03T12:09:29.313Z,84.70
2022-11-03T12:12:05.001Z,84.70
2022-11-03T12:14:36.106Z,86.50
2022-11-03T12:17:35.087Z,86.70
2022-11-03T12:20:35.789Z,87.40
2022-11-03T12:23:03.888Z,85.70
2022-11-03T12:25:40.233Z,85.20
2022-11-03T12:28:08.845Z,86.00
2022-11-03T12:30:40.024Z,86.30
2022-11-03T12:33:09.103Z,84.60
2022-11-03T12:35:38.216Z,84.90
2022-11-03T12:38:06.314Z,83.80
2022-11-03T12:40:34.436Z,84.60
2022-11-03T12:43:04.316Z,84.80
2022-11-03T12:45:32.867Z,83.90
2022-11-03T12:48:00.897Z,84.90
2022-11-03T12:50:29.440Z,86.00
2022-11-03T12:52:57.503Z,86.70
2022-11-03T12:55:25.555Z,84.90
2022-11-03T12:57:53.860Z,84.30
2022-11-03T13:00:23.880Z,85.50
2022-11-03T13:02:52.089Z,87.10
2022-11-03T13:05:20.648Z,84.90
2022-11-03T13:07:49.112Z,88.60
2022-11-03T13:10:17.783Z,88.60
2022-11-03T13:12:46.948Z,87.30
2022-11-03T13:15:15.917Z,87.70
2022-11-03T13:18:11.773Z,87.70
2022-11-03T13:20:34.201Z,90.00
2022-11-03T13:23:02.250Z,89.60
2022-11-03T13:25:30.477Z,90.30
2022-11-03T13:27:58.724Z,89.60
2022-11-03T13:30:28.143Z,90.30
2022-11-03T13:32:57.676Z,90.10
2022-11-03T13:35:25.791Z,89.00
2022-11-03T13:37:53.837Z,88.30
2022-11-03T13:43:10.458Z,90.50
2022-11-03T13:45:38.798Z,91.00
2022-11-03T13:50:57.009Z,91.90
2022-11-03T13:56:20.887Z,92.80
2022-11-03T14:01:38.814Z,94.20
2022-11-03T14:06:56.954Z,97.60
2022-11-03T14:09:25.901Z,99.90
2022-11-03T14:12:11.257Z,99.90
2022-11-03T14:14:39.320Z,99.90
2022-11-03T14:17:07.619Z,99.90
2022-11-03T14:19:43.781Z,99.90
2022-11-03T14:22:14.206Z,99.90
2022-11-03T14:24:42.323Z,99.90
2022-11-03T14:27:10.469Z,99.90
2022-11-03T14:29:38.755Z,99.90
2022-11-03T14:32:06.987Z,99.90
2022-11-03T14:34:36.804Z,99.90
2022-11-03T14:37:05.264Z,99.90
2022-11-03T14:39:33.350Z,99.90
2022-11-03T14:42:06.482Z,99.90
2022-11-03T14:44:36.244Z,99.90
2022-11-03T14:47:05.854Z,99.90
2022-11-03T14:49:36.498Z,99.90
2022-11-03T14:52:07.133Z,99.90
2022-11-03T14:54:36.369Z,99.90
2022-11-03T14:57:05.028Z,99.90
2022-11-03T14:59:33.421Z,99.90
2022-11-03T15:02:01.941Z,99.90
2022-11-03T15:04:30.295Z,99.90
2022-11-03T15:07:00.034Z,99.90
2022-11-03T15:09:28.255Z,99.90
2022-11-03T15:11:56.272Z,99.90
2022-11-03T15:14:24.320Z,99.90
2022-11-03T15:16:52.389Z,99.90
2022-11-03T15:19:20.739Z,99.90
2022-11-03T15:21:48.919Z,99.90
2022-11-03T15:27:06.739Z,99.90
2022-11-03T15:29:34.872Z,99.90
2022-11-03T15:32:02.846Z,99.90
2022-11-03T15:34:31.035Z,99.90
2022-11-03T15:36:59.111Z,99.90
2022-11-03T15:39:29.756Z,99.90
2022-11-03T15:42:00.220Z,99.90
2022-11-03T15:44:28.431Z,99.90
2022-11-03T15:46:56.415Z,99.90
2022-11-03T15:49:24.638Z,99.90
2022-11-03T15:51:52.952Z,99.90
2022-11-03T15:54:21.264Z,99.90
2022-11-03T15:56:51.295Z,99.90
2022-11-03T15:59:20.026Z,99.90
2022-11-03T16:01:48.235Z,99.90
2022-11-03T16:04:16.877Z,99.90
2022-11-03T16:09:33.155Z,99.90
2022-11-03T16:12:02.787Z,99.90
2022-11-03T16:14:31.160Z,99.90
2022-11-03T16:16:59.208Z,99.90
2022-11-03T16:19:27.487Z,99.90
2022-11-03T16:21:55.596Z,99.90
2022-11-03T16:24:29.576Z,99.90
2022-11-03T16:27:04.782Z,99.90
2022-11-03T16:29:32.848Z,99.90
2022-11-03T16:32:00.934Z,99.90
2022-11-03T16:34:30.231Z,99.90
2022-11-03T16:36:58.537Z,99.90
2022-11-03T16:39:26.628Z,99.90
2022-11-03T16:41:55.136Z,99.90
2022-11-03T16:44:24.838Z,99.90
2022-11-03T16:46:52.909Z,99.90
2022-11-03T16:49:20.958Z,99.90
2022-11-03T16:51:49.063Z,99.90
2022-11-03T16:54:17.139Z,99.90
2022-11-03T16:56:46.185Z,99.90
2022-11-03T16:59:16.408Z,99.90
2022-11-03T17:01:46.167Z,99.90
2022-11-03T17:04:14.227Z,99.90
2022-11-03T17:06:42.201Z,99.90
2022-11-03T17:09:13.009Z,99.90
2022-11-03T17:11:41.348Z,99.90
2022-11-03T17:14:13.425Z,99.90
2022-11-03T17:16:45.592Z,99.90
2022-11-03T17:19:15.607Z,99.90
2022-11-03T17:21:43.749Z,99.90
2022-11-03T17:24:13.264Z,99.90
2022-11-03T17:26:51.730Z,99.90
2022-11-03T17:29:23.454Z,99.90
2022-11-03T17:31:52.186Z,99.90
2022-11-03T17:34:25.085Z,99.90
2022-11-03T17:36:54.295Z,99.90
2022-11-03T17:39:28.455Z,99.90
2022-11-03T17:42:05.206Z,99.90
2022-11-03T17:44:33.179Z,99.90
2022-11-03T17:47:01.221Z,99.90
2022-11-03T17:49:30.566Z,99.90
2022-11-03T17:51:59.685Z,99.90
2022-11-03T17:54:30.044Z,99.90
2022-11-03T17:56:58.642Z,99.90
2022-11-03T17:59:27.179Z,99.90
2022-11-03T18:01:55.738Z,99.90
2022-11-03T18:04:24.535Z,99.90
2022-11-03T18:06:54.089Z,99.90
2022-11-03T18:09:22.867Z,99.90
2022-11-03T18:12:08.364Z,99.90
2022-11-03T18:14:36.712Z,99.90
2022-11-03T18:17:04.787Z,99.90
2022-11-03T18:19:32.851Z,99.90
2022-11-03T18:22:02.891Z,99.90
2022-11-03T18:24:30.936Z,99.90
2022-11-03T18:26:59.041Z,99.90
2022-11-03T18:29:27.215Z,99.90
2022-11-03T18:31:55.736Z,99.90
2022-11-03T18:34:28.152Z,99.90
2022-11-03T18:36:56.336Z,99.90
2022-11-03T18:39:28.869Z,99.90
2022-11-03T18:41:57.110Z,99.90
2022-11-03T18:44:28.324Z,99.90
2022-11-03T18:46:57.329Z,99.90
2022-11-03T18:49:27.197Z,99.90
2022-11-03T18:52:02.510Z,99.90
2022-11-03T18:54:35.106Z,99.90
2022-11-03T18:57:04.275Z,99.90
2022-11-03T18:59:37.163Z,99.90
2022-11-03T19:02:08.371Z,99.90
2022-11-03T19:04:36.852Z,99.90
2022-11-03T19:07:08.275Z,99.90
2022-11-03T19:09:38.109Z,99.90
2022-11-03T19:12:06.995Z,99.90
2022-11-03T19:14:39.036Z,99.90
2022-11-03T19:17:25.903Z,99.90
2022-11-03T19:19:54.288Z,99.90
2022-11-03T19:22:23.491Z,99.90
2022-11-03T19:24:53.482Z,99.90
2022-11-03T19:27:25.566Z,99.90
2022-11-03T19:29:54.223Z,99.90
2022-11-03T19:32:27.094Z,99.90
2022-11-03T19:35:00.277Z,99.90
2022-11-03T19:37:34.931Z,99.90
2022-11-03T19:40:08.933Z,99.90
2022-11-03T19:42:37.054Z,99.90
2022-11-03T19:45:08.053Z,99.90
2022-11-03T19:47:47.900Z,99.90
2022-11-03T19:50:24.937Z,99.90
2022-11-03T19:52:56.042Z,99.90
2022-11-03T19:55:31.241Z,99.90
2022-11-03T19:58:03.241Z,99.90
2022-11-03T20:00:31.824Z,99.90
2022-11-03T20:02:59.905Z,99.90
2022-11-03T20:05:28.180Z,99.90
2022-11-03T20:07:58.397Z,99.90
2022-11-03T20:10:31.641Z,99.90
2022-11-03T20:13:03.171Z,99.90
2022-11-03T20:15:31.460Z,99.90
2022-11-03T20:17:59.544Z,99.90
2022-11-03T20:20:32.154Z,99.90
2022-11-03T20:23:01.345Z,99.90
2022-11-03T20:25:33.935Z,99.90
2022-11-03T20:28:09.747Z,99.90
2022-11-03T20:30:37.677Z,99.90
2022-11-03T20:33:07.548Z,99.90
2022-11-03T20:35:37.947Z,99.90
2022-11-03T20:38:07.132Z,99.90
2022-11-03T20:40:36.748Z,99.90
2022-11-03T20:43:06.960Z,99.90
2022-11-03T20:45:35.119Z,99.90
2022-11-03T20:48:03.335Z,99.90
2022-11-03T20:50:32.592Z,99.90
2022-11-03T20:53:00.746Z,99.90
2022-11-03T20:55:29.830Z,99.90
2022-11-03T20:57:59.789Z,99.90
2022-11-03T21:00:28.569Z,99.90
2022-11-03T21:02:57.333Z,99.90
2022-11-03T21:05:27.672Z,99.90
2022-11-03T21:07:56.892Z,99.90
2022-11-03T21:10:25.239Z,99.90
2022-11-03T21:12:54.154Z,99.90
2022-11-03T21:16:03.595Z,99.90
2022-11-03T21:18:48.665Z,99.90
2022-11-03T21:21:20.928Z,99.90
2022-11-03T21:23:49.432Z,99.90
2022-11-03T21:26:17.537Z,99.90
2022-11-03T21:28:45.627Z,99.90
2022-11-03T21:31:15.641Z,99.90
2022-11-03T21:33:43.766Z,99.90
2022-11-03T21:36:13.869Z,99.90
2022-11-03T21:38:41.998Z,99.90
2022-11-03T21:41:27.423Z,99.90
2022-11-03T21:44:12.808Z,99.90
2022-11-03T21:46:42.921Z,99.90
2022-11-03T21:49:29.779Z,99.90
2022-11-03T21:51:57.884Z,99.90
2022-11-03T21:54:26.011Z,99.90
2022-11-03T21:56:54.196Z,99.90
2022-11-03T21:59:22.252Z,99.90
2022-11-03T22:01:53.467Z,99.90
2022-11-03T22:04:21.923Z,99.90
2022-11-03T22:06:50.439Z,99.90
2022-11-03T22:09:18.551Z,99.90
2022-11-03T22:11:47.767Z,99.90
2022-11-03T22:14:16.147Z,99.90
2022-11-03T22:16:44.413Z,99.90
2022-11-03T22:19:33.169Z,99.90
2022-11-03T22:22:19.581Z,99.90
2022-11-03T22:25:05.047Z,99.90
2022-11-03T22:27:34.297Z,99.90
2022-11-03T22:30:19.786Z,99.90
2022-11-03T22:32:53.136Z,99.90
2022-11-03T22:35:41.349Z,99.90
2022-11-03T22:38:11.516Z,99.90
2022-11-03T22:40:58.248Z,99.90
2022-11-03T22:43:59.150Z,99.90
2022-11-03T22:46:27.160Z,99.90
2022-11-03T22:48:55.348Z,99.90
2022-11-03T22:51:25.030Z,99.90
2022-11-03T22:54:10.382Z,99.90
2022-11-03T22:56:39.377Z,99.90
2022-11-03T22:59:07.489Z,99.90
2022-11-03T23:01:36.235Z,99.90
2022-11-03T23:04:07.451Z,99.90
2022-11-03T23:06:40.567Z,99.90
2022-11-03T23:09:11.012Z,99.90
2022-11-03T23:11:39.667Z,99.90
2022-11-03T23:14:09.807Z,99.90
2022-11-03T23:16:39.981Z,99.90
2022-11-03T23:19:28.049Z,99.90
2022-11-03T23:21:58.115Z,99.90
2022-11-03T23:24:44.160Z,99.90
2022-11-03T23:27:14.431Z,99.90
2022-11-03T23:29:42.585Z,99.90
2022-11-03T23:32:10.599Z,99.90
2022-11-03T23:34:38.727Z,99.90
2022-11-03T23:37:08.454Z,99.90
2022-11-03T23:39:36.667Z,99.90
2022-11-03T23:42:04.829Z,99.90
2022-11-03T23:44:54.369Z,99.90
2022-11-03T23:47:39.637Z,99.90
2022-11-03T23:50:08.258Z,99.90
2022-11-03T23:52:38.032Z,99.90
2022-11-03T23:55:07.456Z,99.90
2022-11-03T23:57:52.801Z,99.90
